KCHK/CHK METAR and TAF weather

Enter ICAO airport designator
Station Type Date Time Source
KCHK METAR 2019/02/20 23:35 UTC NOAA

KCHK 202335Z AUTO 01006KT 10SM CLR 10/M04 A2986 RMK AO2 T00951038


Station Type Date Time Source
KCHK Decoded METAR 2019/02/20 23:35 UTC NOAA

Chickasha, Chickasha Municipal Airport, OK, United States (KCHK) 35-05-46N 097-57-58W
Feb 20, 2019 - 06:35 PM EST / 2019.02.20 2335 UTC
Wind: from the N (010 degrees) at 7 MPH (6 KT):0
Visibility: 10 mile(s):0
Sky conditions: clear
Temperature: 49.1 F (9.5 C)
Dew Point: 25.2 F (-3.8 C)
Relative Humidity: 38%
Pressure (altimeter): 29.86 in. Hg (1011 hPa)
ob: KCHK 202335Z AUTO 01006KT 10SM CLR 10/M04 A2986 RMK AO2 T00951038
cycle: 23

Station Type Date Time Source
KCHK TAF UTC NOAA

Error!


Example: see airport list